sensor_id;sensor_type;location;lat;lon;timestamp;temperature;humidity
20590;DHT22;10453;50.810;12.540;2022-12-26T00:00:22;11.00;99.90
20590;DHT22;10453;50.810;12.540;2022-12-26T00:04:39;11.10;99.90
20590;DHT22;10453;50.810;12.540;2022-12-26T00:09:09;11.20;99.90
20590;DHT22;10453;50.810;12.540;2022-12-26T00:13:26;11.20;99.90
20590;DHT22;10453;50.810;12.540;2022-12-26T00:17:56;11.30;99.90
20590;DHT22;10453;50.810;12.540;2022-12-26T00:22:14;11.30;99.90
20590;DHT22;10453;50.810;12.540;2022-12-26T00:26:33;11.30;99.90
20590;DHT22;10453;50.810;12.540;2022-12-26T00:30:52;11.30;99.90
20590;DHT22;10453;50.810;12.540;2022-12-26T00:35:09;11.30;99.90
20590;DHT22;10453;50.810;12.540;2022-12-26T00:39:26;11.30;99.90
20590;DHT22;10453;50.810;12.540;2022-12-26T00:43:44;11.30;99.90
20590;DHT22;10453;50.810;12.540;2022-12-26T00:48:01;11.30;99.90
20590;DHT22;10453;50.810;12.540;2022-12-26T00:52:18;11.20;99.90
20590;DHT22;10453;50.810;12.540;2022-12-26T00:56:36;11.30;99.90
20590;DHT22;10453;50.810;12.540;2022-12-26T01:00:53;11.40;99.90
20590;DHT22;10453;50.810;12.540;2022-12-26T01:05:11;11.30;99.90
20590;DHT22;10453;50.810;12.540;2022-12-26T01:09:28;11.30;99.90
20590;DHT22;10453;50.810;12.540;2022-12-26T01:13:45;11.40;99.90
20590;DHT22;10453;50.810;12.540;2022-12-26T01:18:03;11.30;99.90
20590;DHT22;10453;50.810;12.540;2022-12-26T01:22:21;11.40;99.90
20590;DHT22;10453;50.810;12.540;2022-12-26T01:26:39;11.40;99.90
20590;DHT22;10453;50.810;12.540;2022-12-26T01:31:00;11.30;99.90
20590;DHT22;10453;50.810;12.540;2022-12-26T01:35:17;11.30;99.90
20590;DHT22;10453;50.810;12.540;2022-12-26T01:39:34;11.20;99.90
20590;DHT22;10453;50.810;12.540;2022-12-26T01:43:55;11.30;99.90
20590;DHT22;10453;50.810;12.540;2022-12-26T01:48:33;11.20;99.90
20590;DHT22;10453;50.810;12.540;2022-12-26T01:52:52;11.10;99.90
20590;DHT22;10453;50.810;12.540;2022-12-26T01:57:32;11.10;99.90
20590;DHT22;10453;50.810;12.540;2022-12-26T02:01:52;11.10;99.90
20590;DHT22;10453;50.810;12.540;2022-12-26T02:06:11;11.10;99.90
20590;DHT22;10453;50.810;12.540;2022-12-26T02:10:33;11.00;99.90
20590;DHT22;10453;50.810;12.540;2022-12-26T02:14:52;11.20;99.90
20590;DHT22;10453;50.810;12.540;2022-12-26T02:19:42;11.10;99.90
20590;DHT22;10453;50.810;12.540;2022-12-26T02:33:45;11.00;99.90
20590;DHT22;10453;50.810;12.540;2022-12-26T02:52:10;10.90;99.90
20590;DHT22;10453;50.810;12.540;2022-12-26T02:56:52;11.00;99.90
20590;DHT22;10453;50.810;12.540;2022-12-26T03:01:37;11.10;99.90
20590;DHT22;10453;50.810;12.540;2022-12-26T03:06:20;11.10;99.90
20590;DHT22;10453;50.810;12.540;2022-12-26T03:10:57;11.30;99.90
20590;DHT22;10453;50.810;12.540;2022-12-26T03:15:41;11.30;99.90
20590;DHT22;10453;50.810;12.540;2022-12-26T03:20:38;11.20;99.90
20590;DHT22;10453;50.810;12.540;2022-12-26T03:24:56;11.10;99.90
20590;DHT22;10453;50.810;12.540;2022-12-26T03:29:32;11.20;99.90
20590;DHT22;10453;50.810;12.540;2022-12-26T03:34:16;11.30;99.90
20590;DHT22;10453;50.810;12.540;2022-12-26T03:38:43;11.10;99.90
20590;DHT22;10453;50.810;12.540;2022-12-26T03:48:34;11.00;99.90
20590;DHT22;10453;50.810;12.540;2022-12-26T03:53:26;11.10;99.90
20590;DHT22;10453;50.810;12.540;2022-12-26T03:58:17;11.00;99.90
20590;DHT22;10453;50.810;12.540;2022-12-26T04:02:59;10.90;99.90
20590;DHT22;10453;50.810;12.540;2022-12-26T04:07:41;11.00;99.90
20590;DHT22;10453;50.810;12.540;2022-12-26T04:12:21;10.80;99.90
20590;DHT22;10453;50.810;12.540;2022-12-26T04:17:28;10.80;99.90
20590;DHT22;10453;50.810;12.540;2022-12-26T04:22:06;10.90;99.90
20590;DHT22;10453;50.810;12.540;2022-12-26T04:26:48;10.90;99.90
20590;DHT22;10453;50.810;12.540;2022-12-26T04:36:42;10.90;99.90
20590;DHT22;10453;50.810;12.540;2022-12-26T04:41:20;11.00;99.90
20590;DHT22;10453;50.810;12.540;2022-12-26T04:45:56;10.90;99.90
20590;DHT22;10453;50.810;12.540;2022-12-26T04:50:14;10.90;99.90
20590;DHT22;10453;50.810;12.540;2022-12-26T04:54:31;10.90;99.90
20590;DHT22;10453;50.810;12.540;2022-12-26T04:58:49;10.70;99.90
20590;DHT22;10453;50.810;12.540;2022-12-26T05:03:07;10.80;99.90
20590;DHT22;10453;50.810;12.540;2022-12-26T05:07:43;10.80;99.90
20590;DHT22;10453;50.810;12.540;2022-12-26T05:12:19;10.80;99.90
20590;DHT22;10453;50.810;12.540;2022-12-26T05:16:37;10.90;99.90
20590;DHT22;10453;50.810;12.540;2022-12-26T05:21:14;11.00;99.90
20590;DHT22;10453;50.810;12.540;2022-12-26T05:25:52;11.00;99.90
20590;DHT22;10453;50.810;12.540;2022-12-26T05:30:28;10.90;99.90
20590;DHT22;10453;50.810;12.540;2022-12-26T05:34:45;10.80;99.90
20590;DHT22;10453;50.810;12.540;2022-12-26T05:39:03;10.90;99.90
20590;DHT22;10453;50.810;12.540;2022-12-26T05:43:20;10.90;99.90
20590;DHT22;10453;50.810;12.540;2022-12-26T05:47:37;10.80;99.90
20590;DHT22;10453;50.810;12.540;2022-12-26T05:51:55;11.00;99.90
20590;DHT22;10453;50.810;12.540;2022-12-26T05:56:13;11.00;99.90
20590;DHT22;10453;50.810;12.540;2022-12-26T06:00:31;11.10;99.90
20590;DHT22;10453;50.810;12.540;2022-12-26T06:04:48;11.00;99.90
20590;DHT22;10453;50.810;12.540;2022-12-26T06:09:05;11.10;99.90
20590;DHT22;10453;50.810;12.540;2022-12-26T06:13:23;11.00;99.90
20590;DHT22;10453;50.810;12.540;2022-12-26T06:17:40;10.90;99.90
20590;DHT22;10453;50.810;12.540;2022-12-26T06:21:57;11.00;99.90
20590;DHT22;10453;50.810;12.540;2022-12-26T06:26:15;10.90;99.90
20590;DHT22;10453;50.810;12.540;2022-12-26T06:30:32;10.90;99.90
20590;DHT22;10453;50.810;12.540;2022-12-26T06:34:49;11.00;99.90
20590;DHT22;10453;50.810;12.540;2022-12-26T06:39:06;10.90;99.90
20590;DHT22;10453;50.810;12.540;2022-12-26T06:43:24;10.80;99.90
20590;DHT22;10453;50.810;12.540;2022-12-26T06:47:41;10.70;99.90
20590;DHT22;10453;50.810;12.540;2022-12-26T06:51:58;10.70;99.90
20590;DHT22;10453;50.810;12.540;2022-12-26T06:56:18;10.70;99.90
20590;DHT22;10453;50.810;12.540;2022-12-26T07:00:36;10.60;99.90
20590;DHT22;10453;50.810;12.540;2022-12-26T07:04:53;10.50;99.90
20590;DHT22;10453;50.810;12.540;2022-12-26T07:09:13;10.70;99.90
20590;DHT22;10453;50.810;12.540;2022-12-26T07:13:32;10.70;99.90
20590;DHT22;10453;50.810;12.540;2022-12-26T07:17:51;10.70;99.90
20590;DHT22;10453;50.810;12.540;2022-12-26T07:22:08;10.70;99.90
20590;DHT22;10453;50.810;12.540;2022-12-26T07:26:25;10.70;99.90
20590;DHT22;10453;50.810;12.540;2022-12-26T07:30:46;10.70;99.90
20590;DHT22;10453;50.810;12.540;2022-12-26T07:35:04;10.70;99.90
20590;DHT22;10453;50.810;12.540;2022-12-26T07:39:21;10.80;99.90
20590;DHT22;10453;50.810;12.540;2022-12-26T07:43:38;11.10;99.90
20590;DHT22;10453;50.810;12.540;2022-12-26T07:47:56;11.20;99.90
20590;DHT22;10453;50.810;12.540;2022-12-26T07:52:13;11.10;99.90
20590;DHT22;10453;50.810;12.540;2022-12-26T07:56:31;11.20;99.90
20590;DHT22;10453;50.810;12.540;2022-12-26T08:00:48;11.30;99.90
20590;DHT22;10453;50.810;12.540;2022-12-26T08:05:05;11.30;99.90
20590;DHT22;10453;50.810;12.540;2022-12-26T08:09:23;11.10;99.90
20590;DHT22;10453;50.810;12.540;2022-12-26T08:13:40;11.10;99.90
20590;DHT22;10453;50.810;12.540;2022-12-26T08:17:57;11.10;99.90
20590;DHT22;10453;50.810;12.540;2022-12-26T08:22:14;11.20;99.90
20590;DHT22;10453;50.810;12.540;2022-12-26T08:26:31;11.20;99.90
20590;DHT22;10453;50.810;12.540;2022-12-26T08:30:49;11.30;99.90
20590;DHT22;10453;50.810;12.540;2022-12-26T08:35:06;11.40;99.90
20590;DHT22;10453;50.810;12.540;2022-12-26T08:39:24;11.40;99.90
20590;DHT22;10453;50.810;12.540;2022-12-26T08:43:41;11.50;99.90
20590;DHT22;10453;50.810;12.540;2022-12-26T08:48:18;11.50;99.90
20590;DHT22;10453;50.810;12.540;2022-12-26T08:52:35;11.50;99.90
20590;DHT22;10453;50.810;12.540;2022-12-26T08:56:52;11.60;99.90
20590;DHT22;10453;50.810;12.540;2022-12-26T09:01:21;11.70;99.90
20590;DHT22;10453;50.810;12.540;2022-12-26T09:05:39;11.70;99.90
20590;DHT22;10453;50.810;12.540;2022-12-26T09:09:57;11.80;99.90
20590;DHT22;10453;50.810;12.540;2022-12-26T09:14:14;12.00;99.90
20590;DHT22;10453;50.810;12.540;2022-12-26T09:18:31;12.10;99.90
20590;DHT22;10453;50.810;12.540;2022-12-26T09:22:48;12.10;99.90
20590;DHT22;10453;50.810;12.540;2022-12-26T09:27:09;12.00;99.90
20590;DHT22;10453;50.810;12.540;2022-12-26T09:31:28;12.00;99.90
20590;DHT22;10453;50.810;12.540;2022-12-26T09:35:45;11.90;99.90
20590;DHT22;10453;50.810;12.540;2022-12-26T09:40:04;11.90;99.90
20590;DHT22;10453;50.810;12.540;2022-12-26T09:44:35;11.90;99.90
20590;DHT22;10453;50.810;12.540;2022-12-26T09:53:33;11.90;99.90
20590;DHT22;10453;50.810;12.540;2022-12-26T09:57:54;11.90;99.90
20590;DHT22;10453;50.810;12.540;2022-12-26T10:02:18;11.90;99.90
20590;DHT22;10453;50.810;12.540;2022-12-26T10:06:39;11.90;99.90
20590;DHT22;10453;50.810;12.540;2022-12-26T10:11:00;12.00;99.90
20590;DHT22;10453;50.810;12.540;2022-12-26T10:24:23;11.70;99.90
20590;DHT22;10453;50.810;12.540;2022-12-26T10:33:20;11.80;99.90
20590;DHT22;10453;50.810;12.540;2022-12-26T10:37:40;11.90;99.90
20590;DHT22;10453;50.810;12.540;2022-12-26T10:42:02;12.00;99.90
20590;DHT22;10453;50.810;12.540;2022-12-26T10:46:32;12.20;99.90
20590;DHT22;10453;50.810;12.540;2022-12-26T10:50:52;12.30;99.90
20590;DHT22;10453;50.810;12.540;2022-12-26T10:55:14;12.40;99.90
20590;DHT22;10453;50.810;12.540;2022-12-26T10:59:46;12.40;99.90
20590;DHT22;10453;50.810;12.540;2022-12-26T11:04:13;12.50;99.90
20590;DHT22;10453;50.810;12.540;2022-12-26T11:08:45;12.40;99.90
20590;DHT22;10453;50.810;12.540;2022-12-26T11:13:17;12.20;99.90
20590;DHT22;10453;50.810;12.540;2022-12-26T11:17:40;12.10;99.90
20590;DHT22;10453;50.810;12.540;2022-12-26T11:22:27;11.90;99.90
20590;DHT22;10453;50.810;12.540;2022-12-26T11:26:45;11.90;99.90
20590;DHT22;10453;50.810;12.540;2022-12-26T11:31:05;11.80;99.90
20590;DHT22;10453;50.810;12.540;2022-12-26T11:35:25;11.80;99.90
20590;DHT22;10453;50.810;12.540;2022-12-26T11:39:44;11.70;99.90
20590;DHT22;10453;50.810;12.540;2022-12-26T11:48:26;11.90;99.90
20590;DHT22;10453;50.810;12.540;2022-12-26T11:52:52;11.80;99.90
20590;DHT22;10453;50.810;12.540;2022-12-26T11:57:19;11.90;99.90
20590;DHT22;10453;50.810;12.540;2022-12-26T12:01:38;11.80;99.90
20590;DHT22;10453;50.810;12.540;2022-12-26T12:06:24;11.80;99.90
20590;DHT22;10453;50.810;12.540;2022-12-26T12:11:08;11.70;99.90
20590;DHT22;10453;50.810;12.540;2022-12-26T12:15:35;11.60;99.90
20590;DHT22;10453;50.810;12.540;2022-12-26T12:20:25;11.60;99.90
20590;DHT22;10453;50.810;12.540;2022-12-26T12:29:46;11.20;99.90
20590;DHT22;10453;50.810;12.540;2022-12-26T12:34:59;10.80;99.90
20590;DHT22;10453;50.810;12.540;2022-12-26T12:39:34;10.40;99.90
20590;DHT22;10453;50.810;12.540;2022-12-26T12:44:06;10.40;99.90
20590;DHT22;10453;50.810;12.540;2022-12-26T12:57:54;10.10;99.90
20590;DHT22;10453;50.810;12.540;2022-12-26T13:02:19;10.10;99.90
20590;DHT22;10453;50.810;12.540;2022-12-26T13:06:46;10.00;99.90
20590;DHT22;10453;50.810;12.540;2022-12-26T13:11:35;10.00;99.90
20590;DHT22;10453;50.810;12.540;2022-12-26T13:15:57;9.90;99.90
20590;DHT22;10453;50.810;12.540;2022-12-26T13:20:36;10.00;99.90
20590;DHT22;10453;50.810;12.540;2022-12-26T13:24:57;10.00;99.90
20590;DHT22;10453;50.810;12.540;2022-12-26T13:29:36;10.20;99.90
20590;DHT22;10453;50.810;12.540;2022-12-26T13:33:54;10.20;99.90
20590;DHT22;10453;50.810;12.540;2022-12-26T13:38:12;10.10;99.90
20590;DHT22;10453;50.810;12.540;2022-12-26T13:42:33;10.10;99.90
20590;DHT22;10453;50.810;12.540;2022-12-26T13:47:34;10.00;99.90
20590;DHT22;10453;50.810;12.540;2022-12-26T13:51:54;9.90;99.90
20590;DHT22;10453;50.810;12.540;2022-12-26T14:00:45;9.80;99.90
20590;DHT22;10453;50.810;12.540;2022-12-26T14:05:08;9.70;99.90
20590;DHT22;10453;50.810;12.540;2022-12-26T14:14:28;9.60;99.90
20590;DHT22;10453;50.810;12.540;2022-12-26T14:19:15;9.50;99.90
20590;DHT22;10453;50.810;12.540;2022-12-26T14:24:09;9.40;99.90
20590;DHT22;10453;50.810;12.540;2022-12-26T14:42:23;9.50;99.90
20590;DHT22;10453;50.810;12.540;2022-12-26T14:47:00;9.50;99.90
20590;DHT22;10453;50.810;12.540;2022-12-26T14:55:45;9.50;99.90
20590;DHT22;10453;50.810;12.540;2022-12-26T15:00:26;9.50;99.90
20590;DHT22;10453;50.810;12.540;2022-12-26T15:04:51;9.50;99.90
20590;DHT22;10453;50.810;12.540;2022-12-26T15:18:47;9.60;99.90
20590;DHT22;10453;50.810;12.540;2022-12-26T15:42:02;9.30;99.90
20590;DHT22;10453;50.810;12.540;2022-12-26T15:46:35;9.20;99.90
20590;DHT22;10453;50.810;12.540;2022-12-26T15:51:03;9.10;99.90
20590;DHT22;10453;50.810;12.540;2022-12-26T16:00:09;9.10;99.90
20590;DHT22;10453;50.810;12.540;2022-12-26T16:04:36;9.10;99.90
20590;DHT22;10453;50.810;12.540;2022-12-26T16:09:18;9.20;99.90
20590;DHT22;10453;50.810;12.540;2022-12-26T16:14:08;9.20;99.90
20590;DHT22;10453;50.810;12.540;2022-12-26T16:18:29;9.30;99.90
20590;DHT22;10453;50.810;12.540;2022-12-26T16:22:47;9.30;99.90
20590;DHT22;10453;50.810;12.540;2022-12-26T16:27:06;9.30;99.90
20590;DHT22;10453;50.810;12.540;2022-12-26T16:31:26;9.50;99.90
20590;DHT22;10453;50.810;12.540;2022-12-26T16:35:44;9.50;99.90
20590;DHT22;10453;50.810;12.540;2022-12-26T16:40:22;9.50;99.90
20590;DHT22;10453;50.810;12.540;2022-12-26T16:44:40;9.60;99.90
20590;DHT22;10453;50.810;12.540;2022-12-26T16:49:00;9.70;99.90
20590;DHT22;10453;50.810;12.540;2022-12-26T16:53:21;9.70;99.90
20590;DHT22;10453;50.810;12.540;2022-12-26T16:57:40;9.70;99.90
20590;DHT22;10453;50.810;12.540;2022-12-26T17:01:58;9.70;99.90
20590;DHT22;10453;50.810;12.540;2022-12-26T17:10:46;9.60;99.90
20590;DHT22;10453;50.810;12.540;2022-12-26T17:15:05;9.60;99.90
20590;DHT22;10453;50.810;12.540;2022-12-26T17:19:27;9.70;99.90
20590;DHT22;10453;50.810;12.540;2022-12-26T17:24:17;9.70;99.90
20590;DHT22;10453;50.810;12.540;2022-12-26T17:28:36;9.50;99.90
20590;DHT22;10453;50.810;12.540;2022-12-26T17:32:54;9.20;99.90
20590;DHT22;10453;50.810;12.540;2022-12-26T17:37:30;9.00;99.90
20590;DHT22;10453;50.810;12.540;2022-12-26T17:41:51;8.90;99.90
20590;DHT22;10453;50.810;12.540;2022-12-26T17:46:11;8.90;99.90
20590;DHT22;10453;50.810;12.540;2022-12-26T17:50:34;8.80;99.90
20590;DHT22;10453;50.810;12.540;2022-12-26T17:54:53;8.80;99.90
20590;DHT22;10453;50.810;12.540;2022-12-26T17:59:13;8.70;99.90
20590;DHT22;10453;50.810;12.540;2022-12-26T18:03:30;8.70;99.90
20590;DHT22;10453;50.810;12.540;2022-12-26T18:07:49;8.60;99.90
20590;DHT22;10453;50.810;12.540;2022-12-26T18:12:10;8.50;99.90
20590;DHT22;10453;50.810;12.540;2022-12-26T18:16:28;8.50;99.90
20590;DHT22;10453;50.810;12.540;2022-12-26T18:20:45;8.50;99.90
20590;DHT22;10453;50.810;12.540;2022-12-26T18:25:03;8.40;99.90
20590;DHT22;10453;50.810;12.540;2022-12-26T18:29:20;8.20;99.90
20590;DHT22;10453;50.810;12.540;2022-12-26T18:33:37;8.10;99.90
20590;DHT22;10453;50.810;12.540;2022-12-26T18:37:55;8.10;99.90
20590;DHT22;10453;50.810;12.540;2022-12-26T18:42:13;8.10;99.90
20590;DHT22;10453;50.810;12.540;2022-12-26T18:46:30;8.10;99.90
20590;DHT22;10453;50.810;12.540;2022-12-26T18:50:48;8.10;99.90
20590;DHT22;10453;50.810;12.540;2022-12-26T18:55:05;8.10;99.90
20590;DHT22;10453;50.810;12.540;2022-12-26T18:59:22;8.10;99.90
20590;DHT22;10453;50.810;12.540;2022-12-26T19:03:40;8.10;99.90
20590;DHT22;10453;50.810;12.540;2022-12-26T19:07:59;8.10;99.90
20590;DHT22;10453;50.810;12.540;2022-12-26T19:12:16;8.20;99.90
20590;DHT22;10453;50.810;12.540;2022-12-26T19:16:36;8.20;99.90
20590;DHT22;10453;50.810;12.540;2022-12-26T19:20:53;8.30;99.90
20590;DHT22;10453;50.810;12.540;2022-12-26T19:25:11;8.40;99.90
20590;DHT22;10453;50.810;12.540;2022-12-26T19:29:29;8.50;99.90
20590;DHT22;10453;50.810;12.540;2022-12-26T19:33:46;8.40;99.90
20590;DHT22;10453;50.810;12.540;2022-12-26T19:38:03;8.30;99.90
20590;DHT22;10453;50.810;12.540;2022-12-26T19:42:20;8.20;99.90
20590;DHT22;10453;50.810;12.540;2022-12-26T19:46:38;8.20;99.90
20590;DHT22;10453;50.810;12.540;2022-12-26T19:51:02;8.10;99.90
20590;DHT22;10453;50.810;12.540;2022-12-26T19:55:19;8.10;99.90
20590;DHT22;10453;50.810;12.540;2022-12-26T19:59:36;7.90;99.90
20590;DHT22;10453;50.810;12.540;2022-12-26T20:04:00;7.80;99.90
20590;DHT22;10453;50.810;12.540;2022-12-26T20:08:18;7.80;99.90
20590;DHT22;10453;50.810;12.540;2022-12-26T20:12:35;7.70;99.90
20590;DHT22;10453;50.810;12.540;2022-12-26T20:16:56;7.70;99.90
20590;DHT22;10453;50.810;12.540;2022-12-26T20:21:23;7.60;99.90
20590;DHT22;10453;50.810;12.540;2022-12-26T20:25:40;7.60;99.90
20590;DHT22;10453;50.810;12.540;2022-12-26T20:29:57;7.50;99.90
20590;DHT22;10453;50.810;12.540;2022-12-26T20:34:15;7.50;99.90
20590;DHT22;10453;50.810;12.540;2022-12-26T20:38:33;7.40;99.90
20590;DHT22;10453;50.810;12.540;2022-12-26T20:42:50;7.30;99.90
20590;DHT22;10453;50.810;12.540;2022-12-26T20:47:07;7.30;99.90
20590;DHT22;10453;50.810;12.540;2022-12-26T20:51:27;7.30;99.90
20590;DHT22;10453;50.810;12.540;2022-12-26T20:55:54;7.40;99.90
20590;DHT22;10453;50.810;12.540;2022-12-26T21:00:13;7.40;99.90
20590;DHT22;10453;50.810;12.540;2022-12-26T21:04:31;7.40;99.90
20590;DHT22;10453;50.810;12.540;2022-12-26T21:08:50;7.30;99.90
20590;DHT22;10453;50.810;12.540;2022-12-26T21:13:08;7.30;99.90
20590;DHT22;10453;50.810;12.540;2022-12-26T21:17:25;7.20;99.90
20590;DHT22;10453;50.810;12.540;2022-12-26T21:21:45;7.20;99.90
20590;DHT22;10453;50.810;12.540;2022-12-26T21:26:03;7.10;99.90
20590;DHT22;10453;50.810;12.540;2022-12-26T21:30:20;7.10;99.90
20590;DHT22;10453;50.810;12.540;2022-12-26T21:34:37;7.00;99.90
20590;DHT22;10453;50.810;12.540;2022-12-26T21:38:55;7.00;99.90
20590;DHT22;10453;50.810;12.540;2022-12-26T21:43:13;7.00;99.90
20590;DHT22;10453;50.810;12.540;2022-12-26T21:47:30;6.80;99.90
20590;DHT22;10453;50.810;12.540;2022-12-26T21:51:47;5.80;99.90
20590;DHT22;10453;50.810;12.540;2022-12-26T21:56:09;5.30;99.90
20590;DHT22;10453;50.810;12.540;2022-12-26T22:00:26;5.20;99.90
20590;DHT22;10453;50.810;12.540;2022-12-26T22:04:43;5.30;99.90
20590;DHT22;10453;50.810;12.540;2022-12-26T22:09:00;5.30;99.90
20590;DHT22;10453;50.810;12.540;2022-12-26T22:13:19;5.40;99.90
20590;DHT22;10453;50.810;12.540;2022-12-26T22:17:36;5.50;99.90
20590;DHT22;10453;50.810;12.540;2022-12-26T22:21:53;5.60;99.90
20590;DHT22;10453;50.810;12.540;2022-12-26T22:26:13;5.60;99.90
20590;DHT22;10453;50.810;12.540;2022-12-26T22:30:31;5.60;99.90
20590;DHT22;10453;50.810;12.540;2022-12-26T22:34:48;5.50;99.90
20590;DHT22;10453;50.810;12.540;2022-12-26T22:39:05;5.30;99.90
20590;DHT22;10453;50.810;12.540;2022-12-26T22:43:23;5.30;99.90
20590;DHT22;10453;50.810;12.540;2022-12-26T22:47:40;5.10;99.90
20590;DHT22;10453;50.810;12.540;2022-12-26T22:51:58;4.90;99.90
20590;DHT22;10453;50.810;12.540;2022-12-26T22:56:15;4.80;99.90
20590;DHT22;10453;50.810;12.540;2022-12-26T23:00:32;4.70;99.90
20590;DHT22;10453;50.810;12.540;2022-12-26T23:04:50;4.60;99.90
20590;DHT22;10453;50.810;12.540;2022-12-26T23:09:12;4.70;99.90
20590;DHT22;10453;50.810;12.540;2022-12-26T23:13:30;4.70;99.90
20590;DHT22;10453;50.810;12.540;2022-12-26T23:18:16;4.70;99.90
20590;DHT22;10453;50.810;12.540;2022-12-26T23:22:49;4.70;99.90
20590;DHT22;10453;50.810;12.540;2022-12-26T23:27:07;4.70;99.90
20590;DHT22;10453;50.810;12.540;2022-12-26T23:31:43;4.70;99.90
20590;DHT22;10453;50.810;12.540;2022-12-26T23:36:00;4.80;99.90
20590;DHT22;10453;50.810;12.540;2022-12-26T23:40:19;4.80;99.90
20590;DHT22;10453;50.810;12.540;2022-12-26T23:44:36;4.80;99.90
20590;DHT22;10453;50.810;12.540;2022-12-26T23:48:53;4.80;99.90
20590;DHT22;10453;50.810;12.540;2022-12-26T23:53:10;4.80;99.90
20590;DHT22;10453;50.810;12.540;2022-12-26T23:57:27;4.80;99.90
